Time;durP1;ratioP1;P1;durP2;ratioP2;P2;SDS_P1;SDS_P2;PMS_P1;PMS_P2;Temp;Humidity;BMP_temperature;BMP_pressure;BME280_temperature;BME280_humidity;BME280_pressure;Samples;Min_cycle;Max_cycle;Signal;HPM_P1;HPM_P2
2021/11/05 00:01:43;;;;;;;6.95;2.33;;;7.20;99.90;;;7.72;100.00;100257.31;4992491;28;20234;-78
2021/11/05 00:04:11;;;;;;;8.15;2.25;;;7.20;99.90;;;7.72;100.00;100267.72;4980889;28;20197;-76
2021/11/05 00:06:37;;;;;;;7.63;2.03;;;7.20;99.90;;;7.74;100.00;100268.53;5005525;28;20556;-77
2021/11/05 00:09:06;;;;;;;7.05;2.25;;;7.20;99.90;;;7.74;100.00;100276.34;5030498;28;20762;-76
2021/11/05 00:11:33;;;;;;;7.20;2.15;;;7.20;99.90;;;7.72;100.00;100280.75;5015201;28;20198;-77
2021/11/05 00:13:59;;;;;;;5.55;1.92;;;7.20;99.90;;;7.68;100.00;100273.00;5014816;28;20190;-76
2021/11/05 00:16:26;;;;;;;5.40;1.83;;;7.10;99.90;;;7.64;100.00;100302.69;5030137;28;20210;-78
2021/11/05 00:18:53;;;;;;;6.13;1.85;;;7.10;99.90;;;7.59;100.00;100301.97;5005721;28;20199;-77
2021/11/05 00:21:20;;;;;;;7.05;2.10;;;7.10;99.90;;;7.57;100.00;100303.78;5010975;28;20202;-78
2021/11/05 00:23:47;;;;;;;5.55;1.60;;;7.10;99.90;;;7.60;100.00;100303.66;5013205;28;20209;-77
2021/11/05 00:26:15;;;;;;;4.30;1.38;;;7.10;99.90;;;7.62;100.00;100306.22;5029763;28;20222;-77
2021/11/05 00:28:41;;;;;;;5.05;1.50;;;7.00;99.90;;;7.60;100.00;100314.06;5013205;28;20195;-77
2021/11/05 00:31:08;;;;;;;5.45;1.60;;;7.00;99.90;;;7.56;100.00;100312.50;5029608;28;20190;-77
2021/11/05 00:33:35;;;;;;;4.72;1.80;;;7.00;99.90;;;7.57;100.00;100311.56;5029349;28;20655;-77
2021/11/05 00:36:02;;;;;;;6.65;1.70;;;7.00;99.90;;;7.57;100.00;100319.38;5014159;28;20206;-77
2021/11/05 00:38:29;;;;;;;4.70;1.65;;;7.00;99.90;;;7.56;100.00;100320.31;5014041;28;20182;-77
2021/11/05 00:40:55;;;;;;;6.10;1.60;;;7.00;99.90;;;7.59;100.00;100328.00;5029374;28;20635;-77
2021/11/05 00:43:23;;;;;;;8.52;1.80;;;7.00;99.90;;;7.60;100.00;100342.72;5012655;28;20714;-77
2021/11/05 00:45:50;;;;;;;8.25;1.60;;;7.00;99.90;;;7.62;100.00;100345.25;5028998;28;20206;-78
2021/11/05 00:48:17;;;;;;;5.38;1.77;;;7.00;99.90;;;7.59;100.00;100343.63;5009526;28;20586;-77
2021/11/05 00:50:44;;;;;;;5.57;1.63;;;7.00;99.90;;;7.59;100.00;100348.84;5005650;28;20214;-77
2021/11/05 00:53:11;;;;;;;3.90;1.52;;;7.00;99.90;;;7.63;100.00;100344.38;5007187;28;20199;-77
2021/11/05 00:55:38;;;;;;;7.28;1.85;;;7.10;99.90;;;7.67;100.00;100360.75;5020730;28;20210;-77
2021/11/05 00:58:05;;;;;;;6.72;1.75;;;7.10;99.90;;;7.71;100.00;100349.34;5012419;28;20248;-78
2021/11/05 01:00:33;;;;;;;4.97;1.73;;;7.10;99.90;;;7.71;100.00;100349.34;5028753;28;20206;-77
2021/11/05 01:03:01;;;;;;;6.18;1.60;;;7.10;99.90;;;7.65;100.00;100353.84;5006636;28;20659;-78
2021/11/05 01:05:28;;;;;;;7.60;2.00;;;7.10;99.90;;;7.63;100.00;100355.63;5022083;28;20218;-77
2021/11/05 01:07:55;;;;;;;7.65;1.88;;;7.10;99.90;;;7.61;100.00;100362.66;5012413;28;20285;-78
2021/11/05 01:10:22;;;;;;;5.75;1.90;;;7.00;99.90;;;7.59;100.00;100359.25;5028763;28;20232;-77
2021/11/05 01:12:49;;;;;;;6.30;1.88;;;7.00;99.90;;;7.59;100.00;100369.66;5028590;28;20186;-78
2021/11/05 01:15:16;;;;;;;8.07;1.77;;;7.00;99.90;;;7.64;100.00;100372.97;5028559;28;20198;-77
2021/11/05 01:17:44;;;;;;;5.05;1.60;;;7.00;99.90;;;7.65;100.00;100369.47;5013557;28;20233;-77
2021/11/05 01:20:14;;;;;;;4.85;1.63;;;7.10;99.90;;;7.70;100.00;100376.28;5028600;28;20272;-77
2021/11/05 01:22:41;;;;;;;5.68;1.80;;;7.10;99.90;;;7.67;100.00;100385.03;5013258;28;20670;-77
2021/11/05 01:25:08;;;;;;;6.78;1.90;;;7.10;99.90;;;7.62;100.00;100387.78;5028449;28;20658;-78
2021/11/05 01:27:35;;;;;;;7.50;2.10;;;7.10;99.90;;;7.61;100.00;100387.84;5013183;28;20248;-77
2021/11/05 01:30:03;;;;;;;8.20;2.22;;;7.10;99.90;;;7.57;100.00;100391.41;5012109;28;20272;-77
2021/11/05 01:32:30;;;;;;;5.63;2.10;;;7.00;99.90;;;7.56;100.00;100401.00;5006458;28;21118;-77
2021/11/05 01:34:59;;;;;;;7.28;2.05;;;7.00;99.90;;;7.57;100.00;100400.09;5006092;28;20197;-77
2021/11/05 01:37:26;;;;;;;6.63;2.00;;;7.00;99.90;;;7.60;100.00;100405.19;5013025;28;20212;-76
2021/11/05 01:39:53;;;;;;;8.57;2.28;;;7.00;99.90;;;7.59;100.00;100416.53;5013031;28;20186;-77
2021/11/05 01:42:19;;;;;;;6.80;1.90;;;7.00;99.90;;;7.60;100.00;100418.22;5012414;28;20186;-77
2021/11/05 01:44:46;;;;;;;5.72;1.95;;;7.10;99.90;;;7.58;100.00;100427.00;5009473;28;20242;-77
2021/11/05 01:47:13;;;;;;;8.38;2.20;;;7.00;99.90;;;7.60;100.00;100433.84;4998666;28;20217;-78
2021/11/05 01:49:40;;;;;;;4.95;1.52;;;7.10;99.90;;;7.61;100.00;100438.16;5009826;28;20265;-77
2021/11/05 01:52:09;;;;;;;6.88;1.92;;;7.00;99.90;;;7.63;100.00;100436.34;4993167;28;20190;-76
2021/11/05 01:54:35;;;;;;;6.03;1.90;;;7.10;99.90;;;7.63;100.00;100449.38;5008695;28;20191;-77
2021/11/05 01:57:02;;;;;;;7.35;2.00;;;7.10;99.90;;;7.64;100.00;100440.66;4993228;28;20215;-77
2021/11/05 01:59:32;;;;;;;5.93;2.00;;;7.10;99.90;;;7.64;100.00;100445.88;4992801;28;20191;-77
2021/11/05 02:02:02;;;;;;;7.70;2.33;;;7.10;99.90;;;7.63;100.00;100451.97;4991757;28;20195;-78
2021/11/05 02:04:29;;;;;;;9.02;2.45;;;7.10;99.90;;;7.63;100.00;100453.75;5008290;28;20194;-78
2021/11/05 02:06:58;;;;;;;6.70;2.33;;;7.00;99.90;;;7.60;100.00;100465.09;5001673;28;20214;-78
2021/11/05 02:09:29;;;;;;;7.07;2.22;;;7.10;99.90;;;7.59;100.00;100452.13;5024602;28;20217;-78
2021/11/05 02:11:59;;;;;;;8.10;2.20;;;7.10;99.90;;;7.63;100.00;100464.16;5012824;28;20554;-77
2021/11/05 02:14:28;;;;;;;7.60;2.45;;;7.10;99.90;;;7.60;100.00;100475.50;5028196;28;20198;-77
2021/11/05 02:16:58;;;;;;;7.35;2.38;;;7.00;99.90;;;7.57;100.00;100479.94;5027497;28;20217;-76
2021/11/05 02:19:27;;;;;;;8.23;2.20;;;7.10;99.90;;;7.59;100.00;100479.00;5010970;28;20194;-77
2021/11/05 02:21:58;;;;;;;9.43;2.75;;;7.00;99.90;;;7.62;100.00;100491.06;5012261;28;20197;-77
2021/11/05 02:24:28;;;;;;;7.53;2.40;;;7.10;99.90;;;7.62;100.00;100497.13;5010877;28;20205;-77
2021/11/05 02:26:58;;;;;;;8.43;2.35;;;7.10;99.90;;;7.61;100.00;100503.25;5012512;28;20655;-77
2021/11/05 02:29:27;;;;;;;7.90;2.45;;;7.00;99.90;;;7.61;100.00;100503.25;5010835;28;20194;-78
2021/11/05 02:31:54;;;;;;;7.00;1.98;;;7.00;99.90;;;7.60;100.00;100498.09;5012009;28;20182;-79
2021/11/05 02:34:20;;;;;;;6.43;1.90;;;7.00;99.90;;;7.61;100.00;100512.81;5027081;28;20190;-78
2021/11/05 02:36:47;;;;;;;9.32;1.98;;;7.10;99.90;;;7.62;100.00;100507.56;5019677;28;20698;-77
2021/11/05 02:39:16;;;;;;;6.78;1.75;;;7.10;99.90;;;7.62;100.00;100515.38;5006354;28;20190;-78
2021/11/05 02:41:47;;;;;;;7.22;2.05;;;7.00;99.90;;;7.61;100.00;100513.66;5011249;28;20201;-78
2021/11/05 02:44:15;;;;;;;7.95;2.10;;;7.00;99.90;;;7.64;100.00;100523.13;5027667;28;20261;-79
2021/11/05 02:46:42;;;;;;;6.80;2.30;;;7.10;99.90;;;7.68;100.00;100531.72;5012231;28;20206;-77
2021/11/05 02:49:13;;;;;;;5.57;2.13;;;7.10;99.90;;;7.68;100.00;100531.72;5027507;28;20281;-77
2021/11/05 02:51:40;;;;;;;7.95;2.10;;;7.10;99.90;;;7.71;100.00;100545.50;5012024;28;20593;-77
2021/11/05 02:54:08;;;;;;;5.13;1.90;;;7.10;99.90;;;7.76;100.00;100550.56;5031068;28;20186;-78
2021/11/05 02:56:37;;;;;;;8.70;2.22;;;7.20;99.90;;;7.75;100.00;100547.13;5015121;28;20228;-78
2021/11/05 02:59:05;;;;;;;7.25;2.33;;;7.20;99.90;;;7.76;100.00;100545.34;5011770;28;20666;-78
2021/11/05 03:01:34;;;;;;;7.97;2.45;;;7.20;99.90;;;7.77;100.00;100549.69;4998949;28;20195;-77
2021/11/05 03:04:05;;;;;;;8.18;2.63;;;7.20;99.90;;;7.76;100.00;100555.78;4996391;28;20186;-77
2021/11/05 03:06:35;;;;;;;8.57;2.92;;;7.20;99.90;;;7.75;100.00;100546.25;5019368;28;20218;-78
2021/11/05 03:09:08;;;;;;;10.38;3.45;;;7.20;99.90;;;7.77;100.00;100560.09;5024982;28;20193;-77
2021/11/05 03:11:37;;;;;;;8.48;2.90;;;7.20;99.90;;;7.81;100.00;100566.91;5031501;28;20318;-77
2021/11/05 03:14:06;;;;;;;9.32;3.00;;;7.20;99.90;;;7.82;100.00;100574.69;5031247;28;20260;-78
2021/11/05 03:16:33;;;;;;;9.38;2.70;;;7.20;99.90;;;7.85;100.00;100573.75;5014702;28;20214;-78
2021/11/05 03:19:01;;;;;;;9.18;2.97;;;7.30;99.90;;;7.85;100.00;100574.63;5031230;28;20197;-77
2021/11/05 03:21:27;;;;;;;9.23;2.97;;;7.30;99.90;;;7.87;100.00;100585.81;5015867;28;20601;-77
2021/11/05 03:23:54;;;;;;;11.55;3.33;;;7.30;99.90;;;7.91;100.00;100587.44;5015401;28;20248;-78
2021/11/05 03:26:22;;;;;;;9.45;3.03;;;7.30;99.90;;;7.94;100.00;100597.78;5031046;28;20213;-77
2021/11/05 03:28:50;;;;;;;10.70;2.83;;;7.40;99.90;;;7.94;100.00;100602.97;5015674;28;20192;-79
2021/11/05 03:31:17;;;;;;;8.88;3.22;;;7.40;99.90;;;7.91;100.00;100603.06;5031165;28;20226;-79
2021/11/05 03:33:45;;;;;;;11.00;3.55;;;7.40;99.90;;;7.91;100.00;100604.81;5015645;28;20190;-77
2021/11/05 03:36:12;;;;;;;9.15;3.20;;;7.30;99.90;;;7.94;100.00;100612.56;5025952;28;20606;-78
2021/11/05 03:38:38;;;;;;;9.30;3.17;;;7.40;99.90;;;7.96;100.00;100622.03;5021817;28;20194;-77
2021/11/05 03:41:05;;;;;;;9.27;3.38;;;7.40;99.90;;;7.96;100.00;100624.66;5015526;28;20529;-77
2021/11/05 03:43:32;;;;;;;8.77;3.20;;;7.40;99.90;;;7.97;100.00;100633.31;5015433;28;20197;-79
2021/11/05 03:46:01;;;;;;;10.18;3.05;;;7.40;99.90;;;7.96;100.00;100629.84;5030204;28;20225;-77
2021/11/05 03:48:29;;;;;;;9.52;3.58;;;7.40;99.90;;;7.99;100.00;100634.97;5015074;28;20229;-77
2021/11/05 03:50:56;;;;;;;12.43;3.47;;;7.40;99.90;;;7.99;100.00;100639.34;5015270;28;20281;-77
2021/11/05 03:53:22;;;;;;;9.50;3.83;;;7.40;99.90;;;7.96;100.00;100639.41;5013819;28;20201;-77
2021/11/05 03:55:49;;;;;;;11.10;3.42;;;7.40;99.90;;;7.95;100.00;100643.78;5030706;28;20218;-77
2021/11/05 03:58:16;;;;;;;10.65;3.85;;;7.40;99.90;;;7.97;100.00;100643.75;5015271;28;20186;-78
2021/11/05 04:00:43;;;;;;;11.73;3.78;;;7.40;99.90;;;7.99;100.00;100652.38;5013602;28;20651;-77
2021/11/05 04:03:11;;;;;;;9.52;3.67;;;7.40;99.90;;;7.99;100.00;100647.16;5013729;28;20198;-77
2021/11/05 04:05:39;;;;;;;11.40;3.95;;;7.40;99.90;;;8.00;100.00;100656.69;5025036;28;20730;-78
2021/11/05 04:08:06;;;;;;;12.82;4.18;;;7.40;99.90;;;7.98;100.00;100654.13;5013759;28;20201;-78
2021/11/05 04:10:32;;;;;;;11.18;4.05;;;7.40;99.90;;;7.99;100.00;100654.97;5024116;28;20209;-77
2021/11/05 04:13:01;;;;;;;11.90;4.47;;;7.40;99.90;;;7.98;100.00;100664.53;5005426;28;20244;-77
2021/11/05 04:15:28;;;;;;;10.80;4.28;;;7.40;99.90;;;7.97;100.00;100659.38;5029686;28;20210;-77
2021/11/05 04:17:55;;;;;;;11.88;4.57;;;7.40;99.90;;;7.97;100.00;100669.78;5007840;28;20198;-78
2021/11/05 04:20:24;;;;;;;11.40;4.28;;;7.40;99.90;;;7.98;100.00;100663.69;5010795;28;20709;-77
2021/11/05 04:22:51;;;;;;;12.70;5.00;;;7.40;99.90;;;8.03;100.00;100669.59;5012924;28;20218;-78
2021/11/05 04:25:17;;;;;;;11.35;4.28;;;7.50;99.90;;;8.04;100.00;100679.16;5014251;28;20194;-78
2021/11/05 04:27:44;;;;;;;13.32;5.07;;;7.50;99.90;;;8.07;100.00;100689.47;5014614;28;20197;-77
2021/11/05 04:30:14;;;;;;;13.32;5.60;;;7.50;99.90;;;8.11;100.00;100683.28;5029409;28;20218;-78
2021/11/05 04:32:42;;;;;;;13.95;5.10;;;7.50;99.90;;;8.12;100.00;100698.03;5013776;28;20186;-77
2021/11/05 04:35:09;;;;;;;14.85;5.88;;;7.50;99.90;;;8.09;100.00;100687.69;5012755;28;20198;-77
2021/11/05 04:37:38;;;;;;;14.05;5.30;;;7.50;99.90;;;8.06;100.00;100692.97;5014190;28;20190;-77
2021/11/05 04:40:06;;;;;;;15.77;6.03;;;7.50;99.90;;;8.05;100.00;100697.34;5015912;28;20186;-78
2021/11/05 04:42:37;;;;;;;16.70;6.80;;;7.50;99.90;;;8.06;100.00;100698.19;5014988;28;20786;-77
2021/11/05 04:45:04;;;;;;;13.90;6.15;;;7.50;99.90;;;8.09;100.00;100703.34;5030561;28;20198;-77
2021/11/05 04:47:34;;;;;;;17.30;7.30;;;7.50;99.90;;;8.11;100.00;100706.72;5012110;28;20209;-77
2021/11/05 04:50:01;;;;;;;15.90;6.60;;;7.50;99.90;;;8.10;100.00;100699.81;5006262;28;20677;-77
2021/11/05 04:52:27;;;;;;;18.38;6.82;;;7.50;99.90;;;8.08;100.00;100705.06;5008401;28;20191;-77
2021/11/05 04:54:56;;;;;;;17.77;7.38;;;7.50;99.90;;;8.10;100.00;100721.53;5004747;28;20220;-78
2021/11/05 04:57:22;;;;;;;18.52;7.78;;;7.60;99.90;;;8.12;100.00;100721.47;5029484;28;20217;-77
2021/11/05 04:59:49;;;;;;;20.25;7.88;;;7.60;99.90;;;8.10;100.00;100723.28;5013628;28;20182;-77
2021/11/05 05:02:17;;;;;;;19.40;7.90;;;7.50;99.90;;;8.11;100.00;100728.44;5012272;28;20651;-77
2021/11/05 05:04:50;;;;;;;18.92;8.15;;;7.50;99.90;;;8.14;100.00;100737.94;5014058;28;20182;-77
2021/11/05 05:07:18;;;;;;;21.85;8.63;;;7.60;99.90;;;8.15;100.00;100747.47;5012683;28;20214;-78
2021/11/05 05:09:45;;;;;;;22.25;9.05;;;7.60;99.90;;;8.17;100.00;100748.28;5012542;28;20194;-77
2021/11/05 05:12:13;;;;;;;24.20;10.27;;;7.60;99.90;;;8.19;100.00;100741.28;5029095;28;20206;-79
2021/11/05 05:14:40;;;;;;;23.13;9.85;;;7.60;99.90;;;8.22;100.00;100741.19;5029141;28;20541;-79
2021/11/05 05:17:07;;;;;;;22.83;9.45;;;7.60;99.90;;;8.27;100.00;100744.56;5006755;28;20769;-77
2021/11/05 05:19:34;;;;;;;28.63;10.00;;;7.70;99.90;;;8.28;100.00;100751.47;5002393;28;20206;-77
2021/11/05 05:22:01;;;;;;;24.75;9.77;;;7.60;99.90;;;8.25;100.00;100748.94;5006880;28;20194;-78
2021/11/05 05:24:28;;;;;;;22.25;10.35;;;7.60;99.90;;;8.25;100.00;100749.81;5012571;28;20210;-77
2021/11/05 05:26:55;;;;;;;22.20;9.15;;;7.70;99.90;;;8.24;100.00;100755.91;5028601;28;20214;-78
2021/11/05 05:29:23;;;;;;;25.77;11.55;;;7.60;99.90;;;8.27;100.00;100781.03;5028616;28;20662;-77
2021/11/05 05:31:50;;;;;;;26.13;11.13;;;7.70;99.90;;;8.29;100.00;100790.50;5012820;28;20213;-81
2021/11/05 05:34:17;;;;;;;26.58;10.38;;;7.70;99.90;;;8.30;100.00;100788.78;5013059;28;20182;-78
2021/11/05 05:36:44;;;;;;;23.95;11.32;;;7.70;99.90;;;8.30;100.00;100800.06;5027964;28;20217;-77
2021/11/05 05:39:14;;;;;;;26.77;10.98;;;7.70;99.90;;;8.29;100.00;100790.50;5013072;28;20190;-77
2021/11/05 05:41:41;;;;;;;26.55;10.88;;;7.60;99.90;;;8.29;100.00;100810.53;5012978;28;20286;-77
2021/11/05 05:44:10;;;;;;;26.92;11.50;;;7.60;99.90;;;8.30;100.00;100802.66;5012639;28;20265;-78
2021/11/05 05:46:38;;;;;;;26.55;11.07;;;7.60;99.90;;;8.33;100.00;100822.56;5012863;28;20209;-78
2021/11/05 05:49:05;;;;;;;26.00;11.20;;;7.70;99.90;;;8.35;100.00;100823.41;5020920;28;20572;-77
2021/11/05 05:51:33;;;;;;;28.13;11.55;;;7.70;99.90;;;8.34;100.00;100821.69;5003312;28;20218;-77
2021/11/05 05:54:01;;;;;;;27.88;11.75;;;7.70;99.90;;;8.36;100.00;100827.69;5013006;28;20577;-77
2021/11/05 05:56:28;;;;;;;27.88;12.57;;;7.70;99.90;;;8.38;100.00;100828.53;5027945;28;20591;-77
2021/11/05 05:58:55;;;;;;;29.77;12.10;;;7.70;99.90;;;8.42;100.00;100836.22;5011075;28;20186;-78
2021/11/05 06:01:22;;;;;;;27.73;12.10;;;7.70;99.90;;;8.44;100.00;100839.63;5000776;28;20191;-77
2021/11/05 06:03:50;;;;;;;29.02;12.50;;;7.80;99.90;;;8.47;100.00;100847.38;5012524;28;20663;-78
2021/11/05 06:06:17;;;;;;;30.55;12.07;;;7.80;99.90;;;8.49;100.00;100852.56;5012560;28;20209;-78
2021/11/05 06:08:44;;;;;;;30.40;12.20;;;7.80;99.90;;;8.53;100.00;100846.34;5013859;28;20270;-77
2021/11/05 06:11:11;;;;;;;29.40;13.18;;;7.80;99.90;;;8.54;100.00;100858.53;5011327;28;20565;-77
2021/11/05 06:13:38;;;;;;;29.10;13.32;;;7.80;99.90;;;8.52;100.00;100862.91;5001955;28;20239;-77
2021/11/05 06:16:06;;;;;;;30.52;13.38;;;7.80;99.90;;;8.51;100.00;100855.97;5028115;28;20210;-77
2021/11/05 06:18:33;;;;;;;32.25;12.02;;;7.80;99.90;;;8.49;100.00;100863.00;5011440;28;20225;-77
2021/11/05 06:21:01;;;;;;;28.60;11.43;;;7.80;99.90;;;8.49;100.00;100865.59;5011121;28;20202;-78
2021/11/05 06:23:28;;;;;;;28.08;11.80;;;7.80;99.90;;;8.48;100.00;100875.19;5011164;28;20559;-78
2021/11/05 06:25:55;;;;;;;28.10;12.13;;;7.80;99.90;;;8.46;100.00;100876.97;5012597;28;20573;-78
2021/11/05 06:28:22;;;;;;;26.10;11.65;;;7.70;99.90;;;8.50;100.00;100869.91;5027305;28;20198;-76
2021/11/05 06:30:49;;;;;;;25.20;10.63;;;7.80;99.90;;;8.52;100.00;100882.00;5011031;28;20225;-77
2021/11/05 06:33:18;;;;;;;31.00;11.32;;;7.80;99.90;;;8.50;100.00;100894.25;5027418;28;20198;-78
2021/11/05 06:35:45;;;;;;;29.35;12.38;;;7.70;99.90;;;8.52;100.00;100896.81;5027349;28;20213;-77
2021/11/05 06:38:13;;;;;;;27.25;11.35;;;7.80;99.90;;;8.54;100.00;100905.47;5010990;28;20190;-77
2021/11/05 06:40:40;;;;;;;30.30;12.20;;;7.80;99.90;;;8.57;100.00;100900.16;5011024;28;20654;-77
2021/11/05 06:43:07;;;;;;;32.35;12.45;;;7.80;99.90;;;8.57;100.00;100911.44;5006104;28;20206;-78
2021/11/05 06:45:34;;;;;;;31.13;11.48;;;7.80;99.90;;;8.56;100.00;100917.56;5000513;28;20213;-77
2021/11/05 06:48:02;;;;;;;29.08;11.82;;;7.80;99.90;;;8.56;100.00;100920.16;5012082;28;20194;-78
2021/11/05 06:50:28;;;;;;;26.67;11.32;;;7.80;99.90;;;8.58;100.00;100930.53;5010852;28;20674;-78
2021/11/05 06:52:55;;;;;;;31.45;12.27;;;7.80;99.90;;;8.59;100.00;100937.50;5007400;28;20206;-77
2021/11/05 06:55:23;;;;;;;29.98;11.88;;;7.90;99.90;;;8.62;100.00;100940.84;5003671;28;20209;-77
2021/11/05 06:57:50;;;;;;;31.60;12.68;;;7.90;99.90;;;8.65;100.00;100942.53;5010713;28;20190;-77
2021/11/05 07:00:17;;;;;;;28.73;11.32;;;7.90;99.90;;;8.64;100.00;100949.50;4995917;28;20192;-77
2021/11/05 07:02:44;;;;;;;30.63;12.05;;;7.90;99.90;;;8.64;100.00;100951.28;5008592;28;20198;-77
2021/11/05 07:05:13;;;;;;;29.50;12.88;;;7.90;99.90;;;8.64;100.00;100965.16;5011633;28;20197;-76
2021/11/05 07:07:41;;;;;;;32.22;12.20;;;7.90;99.90;;;8.66;100.00;100975.53;5012567;28;20554;-76
2021/11/05 07:10:11;;;;;;;30.00;12.90;;;7.90;99.90;;;8.67;100.00;100966.84;5010714;28;20564;-75
2021/11/05 07:12:40;;;;;;;30.30;12.20;;;7.90;99.90;;;8.70;100.00;100969.38;5026675;28;20272;-76
2021/11/05 07:15:10;;;;;;;30.17;11.32;;;7.90;99.90;;;8.73;100.00;100987.53;5026681;28;20248;-76
2021/11/05 07:17:37;;;;;;;27.98;11.18;;;8.00;99.90;;;8.78;100.00;100998.72;5026832;28;20198;-76
2021/11/05 07:20:06;;;;;;;29.50;11.75;;;8.00;99.90;;;8.81;100.00;101009.94;5010276;28;20198;-77
2021/11/05 07:22:33;;;;;;;30.90;11.30;;;8.00;99.90;;;8.83;100.00;101022.94;5010266;28;20186;-76
2021/11/05 07:24:59;;;;;;;27.50;11.50;;;8.00;99.90;;;8.82;100.00;101013.41;4999702;28;20202;-76
2021/11/05 07:27:26;;;;;;;26.40;11.45;;;8.00;99.90;;;8.83;100.00;101023.78;5007254;28;20186;-76
2021/11/05 07:29:56;;;;;;;28.08;11.00;;;8.10;99.90;;;8.84;100.00;101024.66;5026944;28;20284;-76
2021/11/05 07:32:23;;;;;;;26.80;10.60;;;8.10;99.90;;;8.83;100.00;101022.94;5011452;28;20253;-76
2021/11/05 07:34:54;;;;;;;25.60;10.05;;;8.00;99.90;;;8.82;100.00;101029.88;5011562;28;20183;-76
2021/11/05 07:37:22;;;;;;;26.73;11.05;;;8.10;99.90;;;8.84;100.00;101033.31;5011767;28;20217;-76
2021/11/05 07:39:50;;;;;;;28.77;11.18;;;8.10;99.90;;;8.88;100.00;101040.19;5011818;28;20190;-76
2021/11/05 07:42:17;;;;;;;26.42;10.65;;;8.10;99.90;;;8.93;100.00;101040.06;5013582;28;20201;-77
2021/11/05 07:44:44;;;;;;;24.33;10.55;;;8.10;99.90;;;8.99;100.00;101052.09;5030419;28;20209;-76
2021/11/05 07:47:13;;;;;;;29.23;11.85;;;8.10;99.90;;;9.04;100.00;101060.69;5015063;28;20317;-76
2021/11/05 07:49:41;;;;;;;25.50;10.40;;;8.20;99.90;;;8.96;100.00;101053.03;5013921;28;20257;-76
2021/11/05 07:52:09;;;;;;;23.30;10.38;;;8.10;99.90;;;8.95;100.00;101061.78;5014764;28;20217;-76
2021/11/05 07:54:36;;;;;;;25.85;9.93;;;8.10;99.90;;;8.91;100.00;101061.91;5005606;28;20214;-76
2021/11/05 07:57:03;;;;;;;23.88;9.57;;;8.10;99.90;;;8.87;100.00;101055.88;5007689;28;20225;-76
2021/11/05 07:59:29;;;;;;;24.25;9.93;;;8.10;99.90;;;8.87;100.00;101072.38;5015809;28;20277;-76
2021/11/05 08:01:56;;;;;;;25.67;9.52;;;8.10;99.90;;;8.84;100.00;101074.25;5013646;28;20194;-76
2021/11/05 08:04:24;;;;;;;23.02;9.63;;;8.10;99.90;;;8.86;100.00;101085.47;5013560;28;20199;-76
2021/11/05 08:06:51;;;;;;;23.95;10.13;;;8.10;99.90;;;8.88;100.00;101079.34;5013735;28;20734;-76
2021/11/05 08:09:18;;;;;;;24.45;10.73;;;8.10;99.90;;;8.90;100.00;101084.50;5014752;28;20193;-76
2021/11/05 08:11:48;;;;;;;25.02;10.02;;;8.10;99.90;;;8.93;100.00;101094.88;5029427;28;20225;-76
2021/11/05 08:14:15;;;;;;;29.63;11.55;;;8.10;99.90;;;8.93;100.00;101097.47;5029737;28;20214;-76
2021/11/05 08:16:42;;;;;;;25.13;10.20;;;8.10;99.90;;;8.95;100.00;101100.91;5014548;28;20214;-76
2021/11/05 08:19:09;;;;;;;25.17;9.60;;;8.20;99.90;;;8.98;100.00;101098.22;5014763;28;20222;-76
2021/11/05 08:21:37;;;;;;;22.73;9.68;;;8.20;99.90;;;8.99;100.00;101115.63;5008990;28;20222;-76
2021/11/05 08:24:05;;;;;;;23.70;10.38;;;8.20;99.90;;;9.04;100.00;101115.50;5006063;28;20221;-76
2021/11/05 08:26:34;;;;;;;22.15;10.15;;;8.30;99.90;;;9.06;100.00;101114.53;5009910;28;20218;-77
2021/11/05 08:29:01;;;;;;;24.65;10.20;;;8.30;99.90;;;9.09;100.00;101119.72;5004787;28;20202;-76
2021/11/05 08:31:28;;;;;;;27.08;9.85;;;8.30;99.90;;;9.11;100.00;101117.91;5026460;28;20213;-76
2021/11/05 08:33:55;;;;;;;24.77;10.02;;;8.40;99.90;;;9.17;100.00;101128.19;5014063;28;20182;-76
2021/11/05 08:36:26;;;;;;;25.20;9.23;;;8.40;99.90;;;9.24;100.00;101135.00;5029197;28;20225;-76
2021/11/05 08:38:56;;;;;;;25.52;9.32;;;8.50;99.90;;;9.24;100.00;101140.22;5012956;28;20190;-76
2021/11/05 08:41:23;;;;;;;21.60;9.82;;;8.50;99.90;;;9.27;100.00;101137.53;5013907;28;20532;-77
2021/11/05 08:43:55;;;;;;;21.90;9.27;;;8.50;99.90;;;9.23;100.00;101148.91;5034678;28;20193;-78
2021/11/05 08:46:23;;;;;;;18.48;8.88;;;8.50;99.90;;;9.21;100.00;101153.31;5016806;28;20260;-78
2021/11/05 08:48:53;;;;;;;22.77;9.00;;;8.50;99.90;;;9.26;100.00;101154.06;5014463;28;20288;-78
2021/11/05 08:51:22;;;;;;;22.70;8.43;;;8.50;99.90;;;9.28;100.00;101162.72;5029986;28;20194;-78
2021/11/05 08:53:49;;;;;;;21.50;8.85;;;8.50;99.90;;;9.25;100.00;101162.81;5004839;28;20191;-78
2021/11/05 08:56:18;;;;;;;23.48;9.02;;;8.50;99.90;;;9.22;100.00;101165.50;5004094;28;20222;-78
2021/11/05 08:58:47;;;;;;;22.15;8.68;;;8.50;99.90;;;9.24;100.00;101168.06;5014813;28;20273;-76
2021/11/05 09:01:15;;;;;;;20.13;8.27;;;8.50;99.90;;;9.27;100.00;101171.47;5013965;28;20198;-78
2021/11/05 09:03:42;;;;;;;21.13;8.13;;;8.60;99.90;;;9.32;100.00;101169.59;5016016;28;20214;-78
2021/11/05 09:06:10;;;;;;;21.92;8.30;;;8.60;99.90;;;9.35;100.00;101164.28;5030878;28;20682;-78
2021/11/05 09:08:38;;;;;;;20.98;8.32;;;8.60;99.90;;;9.37;100.00;101169.47;5016173;28;20191;-78
2021/11/05 09:11:07;;;;;;;17.88;7.55;;;8.70;99.90;;;9.36;100.00;101179.06;5031343;28;20232;-78
2021/11/05 09:13:36;;;;;;;19.20;7.40;;;8.70;99.90;;;9.31;100.00;101188.75;5030682;28;20232;-76
2021/11/05 09:16:05;;;;;;;15.57;6.85;;;8.70;99.90;;;9.27;100.00;101181.91;5014153;28;20233;-76
2021/11/05 09:18:33;;;;;;;15.90;7.15;;;8.60;99.90;;;9.29;100.00;101184.47;5031792;28;20202;-75
2021/11/05 09:21:01;;;;;;;18.92;7.13;;;8.60;99.90;;;9.33;100.00;101197.41;5013089;28;20190;-78
2021/11/05 09:23:30;;;;;;;21.25;8.00;;;8.70;99.90;;;9.39;100.00;101194.66;5008279;28;20209;-75
2021/11/05 09:25:57;;;;;;;17.75;6.65;;;8.80;99.90;;;9.43;100.00;101198.91;5021276;28;20716;-78
2021/11/05 09:28:24;;;;;;;14.88;6.05;;;8.80;99.90;;;9.42;100.00;101205.03;5013397;28;20655;-78
2021/11/05 09:30:52;;;;;;;16.92;6.57;;;8.80;99.90;;;9.45;100.00;101211.91;4999997;28;20286;-78
2021/11/05 09:33:19;;;;;;;14.50;6.05;;;8.80;99.90;;;9.48;100.00;101210.09;5007961;28;20228;-78
2021/11/05 09:35:46;;;;;;;14.18;5.90;;;8.90;99.90;;;9.55;100.00;101216.00;5010885;28;20305;-77
2021/11/05 09:38:14;;;;;;;15.43;6.38;;;8.90;99.90;;;9.53;100.00;101220.41;5021379;28;20204;-78
2021/11/05 09:40:43;;;;;;;14.65;5.75;;;8.90;99.90;;;9.50;100.00;101223.97;5028935;28;20224;-76
2021/11/05 09:43:11;;;;;;;15.07;5.60;;;8.90;99.90;;;9.50;100.00;101226.59;5012545;28;20194;-76
2021/11/05 09:45:39;;;;;;;12.88;5.50;;;8.90;99.90;;;9.50;100.00;101233.56;5013984;28;20217;-78
2021/11/05 09:48:07;;;;;;;16.75;6.47;;;8.90;99.90;;;9.54;99.89;101233.47;5021599;28;20290;-78
2021/11/05 09:50:34;;;;;;;14.75;5.75;;;9.00;99.90;;;9.59;100.00;101231.59;5017280;28;20565;-75
2021/11/05 09:53:01;;;;;;;14.93;6.07;;;9.00;99.90;;;9.63;99.56;101238.44;5011928;28;20222;-76
2021/11/05 09:55:30;;;;;;;17.98;6.30;;;9.00;99.90;;;9.67;99.27;101245.31;5012672;28;20210;-77
2021/11/05 09:57:57;;;;;;;15.70;6.47;;;9.10;99.90;;;9.66;99.00;101254.03;5028794;28;20222;-76
2021/11/05 10:00:27;;;;;;;14.55;6.07;;;9.10;99.90;;;9.66;98.52;101266.28;5013053;28;20182;-76
2021/11/05 10:02:56;;;;;;;17.15;6.55;;;9.10;99.90;;;9.66;98.76;101261.88;5012543;28;20188;-78
2021/11/05 10:05:24;;;;;;;12.20;5.05;;;9.10;99.90;;;9.64;98.32;101261.09;5011517;28;20221;-78
2021/11/05 10:07:55;;;;;;;16.17;6.18;;;9.10;99.90;;;9.64;97.96;101271.53;5028212;28;20605;-76
2021/11/05 10:10:28;;;;;;;13.25;5.32;;;9.10;99.90;;;9.68;98.12;101270.53;5013428;28;20186;-78
2021/11/05 10:13:02;;;;;;;18.25;6.28;;;9.10;99.90;;;9.76;97.99;101272.97;5011998;28;20235;-78
2021/11/05 10:15:37;;;;;;;19.58;6.68;;;9.10;99.90;;;9.79;97.66;101280.75;5012234;28;20222;-78